sensor_id;sensor_type;location;lat;lon;timestamp;P1;durP1;ratioP1;P2;durP2;ratioP2
52438;SDS011;38359;53.150;6.504;2023-07-13T00:04:52;17.00;;;2.60;;
52438;SDS011;38359;53.150;6.504;2023-07-13T00:15:20;18.75;;;2.40;;
52438;SDS011;38359;53.150;6.504;2023-07-13T00:25:49;18.95;;;2.80;;
52438;SDS011;38359;53.150;6.504;2023-07-13T00:36:16;16.35;;;2.72;;
52438;SDS011;38359;53.150;6.504;2023-07-13T00:46:42;14.90;;;3.03;;
52438;SDS011;38359;53.150;6.504;2023-07-13T00:57:09;12.35;;;2.90;;
52438;SDS011;38359;53.150;6.504;2023-07-13T01:07:40;19.23;;;3.00;;
52438;SDS011;38359;53.150;6.504;2023-07-13T01:18:42;17.65;;;3.38;;
52438;SDS011;38359;53.150;6.504;2023-07-13T01:29:02;16.03;;;3.50;;
52438;SDS011;38359;53.150;6.504;2023-07-13T01:39:27;19.58;;;4.03;;
52438;SDS011;38359;53.150;6.504;2023-07-13T01:49:53;32.55;;;5.00;;
52438;SDS011;38359;53.150;6.504;2023-07-13T02:00:19;21.17;;;4.93;;
52438;SDS011;38359;53.150;6.504;2023-07-13T02:10:45;24.80;;;4.05;;
52438;SDS011;38359;53.150;6.504;2023-07-13T02:21:11;19.90;;;4.13;;
52438;SDS011;38359;53.150;6.504;2023-07-13T02:31:37;21.33;;;5.18;;
52438;SDS011;38359;53.150;6.504;2023-07-13T02:42:03;20.17;;;4.47;;
52438;SDS011;38359;53.150;6.504;2023-07-13T02:52:29;27.55;;;5.10;;
52438;SDS011;38359;53.150;6.504;2023-07-13T03:02:55;22.92;;;4.65;;
52438;SDS011;38359;53.150;6.504;2023-07-13T03:13:22;23.05;;;4.93;;
52438;SDS011;38359;53.150;6.504;2023-07-13T03:23:49;20.85;;;4.13;;
52438;SDS011;38359;53.150;6.504;2023-07-13T03:34:15;23.70;;;4.70;;
52438;SDS011;38359;53.150;6.504;2023-07-13T03:44:41;22.73;;;4.97;;
52438;SDS011;38359;53.150;6.504;2023-07-13T03:55:11;29.38;;;4.55;;
52438;SDS011;38359;53.150;6.504;2023-07-13T04:05:36;26.98;;;4.35;;
52438;SDS011;38359;53.150;6.504;2023-07-13T04:16:05;22.92;;;4.35;;
52438;SDS011;38359;53.150;6.504;2023-07-13T04:26:31;25.85;;;5.32;;
52438;SDS011;38359;53.150;6.504;2023-07-13T04:37:01;26.17;;;5.07;;
52438;SDS011;38359;53.150;6.504;2023-07-13T04:47:29;21.98;;;5.68;;
52438;SDS011;38359;53.150;6.504;2023-07-13T04:57:56;24.92;;;5.22;;
52438;SDS011;38359;53.150;6.504;2023-07-13T05:08:26;25.38;;;4.82;;
52438;SDS011;38359;53.150;6.504;2023-07-13T05:18:52;24.88;;;5.28;;
52438;SDS011;38359;53.150;6.504;2023-07-13T05:29:19;18.55;;;4.22;;
52438;SDS011;38359;53.150;6.504;2023-07-13T05:39:46;16.20;;;4.10;;
52438;SDS011;38359;53.150;6.504;2023-07-13T05:50:12;20.73;;;4.45;;
52438;SDS011;38359;53.150;6.504;2023-07-13T06:00:37;29.00;;;5.10;;
52438;SDS011;38359;53.150;6.504;2023-07-13T06:11:05;17.80;;;3.70;;
52438;SDS011;38359;53.150;6.504;2023-07-13T06:21:42;19.20;;;4.15;;
52438;SDS011;38359;53.150;6.504;2023-07-13T06:32:08;16.67;;;3.10;;
52438;SDS011;38359;53.150;6.504;2023-07-13T06:42:34;25.13;;;4.18;;
52438;SDS011;38359;53.150;6.504;2023-07-13T06:53:00;25.00;;;3.53;;
52438;SDS011;38359;53.150;6.504;2023-07-13T07:03:26;29.65;;;3.58;;
52438;SDS011;38359;53.150;6.504;2023-07-13T07:13:52;16.90;;;3.10;;
52438;SDS011;38359;53.150;6.504;2023-07-13T07:24:19;29.95;;;3.65;;
52438;SDS011;38359;53.150;6.504;2023-07-13T07:34:45;22.48;;;3.67;;
52438;SDS011;38359;53.150;6.504;2023-07-13T07:45:11;17.58;;;3.47;;
52438;SDS011;38359;53.150;6.504;2023-07-13T07:55:37;10.13;;;2.75;;
52438;SDS011;38359;53.150;6.504;2023-07-13T08:06:03;3.92;;;1.80;;
52438;SDS011;38359;53.150;6.504;2023-07-13T08:16:29;6.57;;;1.75;;
52438;SDS011;38359;53.150;6.504;2023-07-13T08:26:55;31.35;;;3.58;;
52438;SDS011;38359;53.150;6.504;2023-07-13T08:37:21;11.45;;;2.55;;
52438;SDS011;38359;53.150;6.504;2023-07-13T08:47:54;10.13;;;2.50;;
52438;SDS011;38359;53.150;6.504;2023-07-13T08:58:29;9.07;;;1.67;;
52438;SDS011;38359;53.150;6.504;2023-07-13T09:09:01;8.00;;;1.70;;
52438;SDS011;38359;53.150;6.504;2023-07-13T09:19:40;9.77;;;1.75;;
52438;SDS011;38359;53.150;6.504;2023-07-13T09:40:42;11.77;;;2.70;;
52438;SDS011;38359;53.150;6.504;2023-07-13T09:51:36;6.90;;;2.47;;
52438;SDS011;38359;53.150;6.504;2023-07-13T10:12:59;10.07;;;2.85;;
52438;SDS011;38359;53.150;6.504;2023-07-13T10:23:25;10.65;;;2.80;;
52438;SDS011;38359;53.150;6.504;2023-07-13T10:33:56;7.25;;;3.15;;
52438;SDS011;38359;53.150;6.504;2023-07-13T10:44:29;3.88;;;1.30;;
52438;SDS011;38359;53.150;6.504;2023-07-13T10:54:56;8.98;;;1.70;;
52438;SDS011;38359;53.150;6.504;2023-07-13T11:15:58;6.15;;;1.50;;
52438;SDS011;38359;53.150;6.504;2023-07-13T11:26:50;5.88;;;1.35;;
52438;SDS011;38359;53.150;6.504;2023-07-13T11:37:17;5.15;;;1.40;;
52438;SDS011;38359;53.150;6.504;2023-07-13T11:47:45;9.38;;;1.63;;
52438;SDS011;38359;53.150;6.504;2023-07-13T11:58:11;8.15;;;1.50;;
52438;SDS011;38359;53.150;6.504;2023-07-13T12:08:44;10.57;;;1.35;;
52438;SDS011;38359;53.150;6.504;2023-07-13T12:19:17;4.97;;;1.73;;
52438;SDS011;38359;53.150;6.504;2023-07-13T12:29:49;7.85;;;1.05;;
52438;SDS011;38359;53.150;6.504;2023-07-13T12:40:35;3.55;;;1.20;;
52438;SDS011;38359;53.150;6.504;2023-07-13T12:51:02;5.10;;;1.50;;
52438;SDS011;38359;53.150;6.504;2023-07-13T13:01:28;11.80;;;2.13;;
52438;SDS011;38359;53.150;6.504;2023-07-13T13:11:58;6.35;;;1.50;;
52438;SDS011;38359;53.150;6.504;2023-07-13T13:22:24;5.47;;;1.58;;
52438;SDS011;38359;53.150;6.504;2023-07-13T13:32:50;4.40;;;1.23;;
52438;SDS011;38359;53.150;6.504;2023-07-13T13:43:16;7.75;;;1.67;;
52438;SDS011;38359;53.150;6.504;2023-07-13T13:53:52;10.45;;;2.03;;
52438;SDS011;38359;53.150;6.504;2023-07-13T14:04:19;10.10;;;2.65;;
52438;SDS011;38359;53.150;6.504;2023-07-13T14:14:46;7.63;;;1.48;;
52438;SDS011;38359;53.150;6.504;2023-07-13T14:25:13;11.93;;;1.95;;
52438;SDS011;38359;53.150;6.504;2023-07-13T14:35:40;9.50;;;1.73;;
52438;SDS011;38359;53.150;6.504;2023-07-13T14:46:08;7.80;;;1.65;;
52438;SDS011;38359;53.150;6.504;2023-07-13T14:57:02;6.82;;;2.00;;
52438;SDS011;38359;53.150;6.504;2023-07-13T15:07:28;3.85;;;1.30;;
52438;SDS011;38359;53.150;6.504;2023-07-13T15:17:54;7.95;;;1.92;;
52438;SDS011;38359;53.150;6.504;2023-07-13T15:28:21;13.75;;;2.33;;
52438;SDS011;38359;53.150;6.504;2023-07-13T15:38:47;16.30;;;2.45;;
52438;SDS011;38359;53.150;6.504;2023-07-13T15:49:15;12.15;;;2.10;;
52438;SDS011;38359;53.150;6.504;2023-07-13T15:59:41;11.98;;;2.38;;
52438;SDS011;38359;53.150;6.504;2023-07-13T16:10:08;6.95;;;2.03;;
52438;SDS011;38359;53.150;6.504;2023-07-13T16:20:40;7.32;;;2.33;;
52438;SDS011;38359;53.150;6.504;2023-07-13T16:31:06;13.40;;;2.35;;
52438;SDS011;38359;53.150;6.504;2023-07-13T16:41:35;11.38;;;2.75;;
52438;SDS011;38359;53.150;6.504;2023-07-13T16:52:01;7.15;;;2.38;;
52438;SDS011;38359;53.150;6.504;2023-07-13T17:02:30;9.32;;;1.83;;
52438;SDS011;38359;53.150;6.504;2023-07-13T17:12:58;13.13;;;2.30;;
52438;SDS011;38359;53.150;6.504;2023-07-13T17:23:24;11.80;;;2.28;;
52438;SDS011;38359;53.150;6.504;2023-07-13T17:33:51;9.85;;;1.95;;
52438;SDS011;38359;53.150;6.504;2023-07-13T17:44:17;12.07;;;2.40;;
52438;SDS011;38359;53.150;6.504;2023-07-13T17:54:44;4.10;;;1.60;;
52438;SDS011;38359;53.150;6.504;2023-07-13T18:05:12;7.03;;;2.03;;
52438;SDS011;38359;53.150;6.504;2023-07-13T18:15:39;9.20;;;2.10;;
52438;SDS011;38359;53.150;6.504;2023-07-13T18:26:08;7.85;;;2.10;;
52438;SDS011;38359;53.150;6.504;2023-07-13T18:36:35;8.75;;;2.00;;
52438;SDS011;38359;53.150;6.504;2023-07-13T18:47:04;6.70;;;2.38;;
52438;SDS011;38359;53.150;6.504;2023-07-13T18:57:30;10.82;;;2.80;;
52438;SDS011;38359;53.150;6.504;2023-07-13T19:07:55;10.02;;;2.33;;
52438;SDS011;38359;53.150;6.504;2023-07-13T19:18:31;12.05;;;2.85;;
52438;SDS011;38359;53.150;6.504;2023-07-13T19:28:57;12.23;;;2.70;;
52438;SDS011;38359;53.150;6.504;2023-07-13T19:50:07;9.98;;;2.63;;
52438;SDS011;38359;53.150;6.504;2023-07-13T20:00:36;7.50;;;2.60;;
52438;SDS011;38359;53.150;6.504;2023-07-13T20:11:03;8.88;;;2.20;;
52438;SDS011;38359;53.150;6.504;2023-07-13T20:21:29;8.25;;;2.60;;
52438;SDS011;38359;53.150;6.504;2023-07-13T20:31:55;10.63;;;3.25;;
52438;SDS011;38359;53.150;6.504;2023-07-13T20:42:23;11.32;;;2.60;;
52438;SDS011;38359;53.150;6.504;2023-07-13T20:52:51;13.43;;;3.38;;
52438;SDS011;38359;53.150;6.504;2023-07-13T21:03:23;12.00;;;3.10;;
52438;SDS011;38359;53.150;6.504;2023-07-13T21:13:53;8.20;;;2.78;;
52438;SDS011;38359;53.150;6.504;2023-07-13T21:24:20;6.85;;;2.28;;
52438;SDS011;38359;53.150;6.504;2023-07-13T21:34:46;14.55;;;3.30;;
52438;SDS011;38359;53.150;6.504;2023-07-13T21:45:17;11.00;;;4.10;;
52438;SDS011;38359;53.150;6.504;2023-07-13T21:55:49;10.20;;;3.67;;
52438;SDS011;38359;53.150;6.504;2023-07-13T22:06:22;9.52;;;4.32;;
52438;SDS011;38359;53.150;6.504;2023-07-13T22:16:51;9.98;;;3.85;;
52438;SDS011;38359;53.150;6.504;2023-07-13T22:27:17;18.08;;;4.75;;
52438;SDS011;38359;53.150;6.504;2023-07-13T22:37:43;14.35;;;4.95;;
52438;SDS011;38359;53.150;6.504;2023-07-13T22:48:17;11.15;;;4.28;;
52438;SDS011;38359;53.150;6.504;2023-07-13T22:58:49;13.38;;;4.10;;
52438;SDS011;38359;53.150;6.504;2023-07-13T23:09:15;8.73;;;4.03;;
52438;SDS011;38359;53.150;6.504;2023-07-13T23:19:41;11.20;;;4.85;;
52438;SDS011;38359;53.150;6.504;2023-07-13T23:30:07;10.65;;;5.15;;
52438;SDS011;38359;53.150;6.504;2023-07-13T23:40:45;20.00;;;5.18;;
52438;SDS011;38359;53.150;6.504;2023-07-13T23:51:11;15.32;;;6.20;;
